Time;durP1;ratioP1;P1;durP2;ratioP2;P2;SDS_P1;SDS_P2;PMS_P1;PMS_P2;Temp;Humidity;BMP_temperature;BMP_pressure;BME280_temperature;BME280_humidity;BME280_pressure;Samples;Min_cycle;Max_cycle;Signal;HPM_P1;HPM_P2
2022/04/30 00:00:00;;;;;;;16.10;9.35;;;;;;;;;;5072610;28;20064;-82
2022/04/30 00:02:47;;;;;;;14.77;9.38;;;;;;;;;;5071342;28;20032;-82
2022/04/30 00:05:21;;;;;;;17.98;10.25;;;;;;;;;;5073437;28;20091;-82
2022/04/30 00:07:58;;;;;;;17.67;10.65;;;;;;;;;;5036902;28;20049;-82
2022/04/30 00:13:45;;;;;;;18.65;10.60;;;;;;;;;;5071999;28;20049;-82
2022/04/30 00:16:13;;;;;;;17.73;11.23;;;;;;;;;;5046273;28;20050;-82
2022/04/30 00:18:49;;;;;;;;;;;;;;;;;;;;;
2022/04/30 00:21:18;;;;;;;17.95;11.73;;;;;;;;;;5069073;28;20045;-82
2022/04/30 00:23:46;;;;;;;18.88;12.02;;;;;;;;;;5038802;28;20049;-82
2022/04/30 00:26:33;;;;;;;;;;;;;;;;;;;;;
2022/04/30 00:29:19;;;;;;;18.77;10.93;;;;;;;;;;5048820;28;20056;-81
2022/04/30 00:31:51;;;;;;;19.05;11.20;;;;;;;;;;5044978;28;20041;-83
2022/04/30 00:34:26;;;;;;;18.77;11.38;;;;;;;;;;5067621;28;20529;-81
2022/04/30 00:36:52;;;;;;;19.73;11.82;;;;;;;;;;5063136;28;20056;-82
2022/04/30 00:39:27;;;;;;;16.33;10.73;;;;;;;;;;5069220;28;20051;-82
2022/04/30 00:42:02;;;;;;;19.50;12.68;;;;;;;;;;5053962;28;20037;-83
2022/04/30 00:47:50;;;;;;;;;;;;;;;;;;;;;
2022/04/30 00:50:41;;;;;;;22.48;12.20;;;;;;;;;;5085679;28;20520;-82
2022/04/30 00:53:11;;;;;;;21.45;12.40;;;;;;;;;;5082634;28;20037;-83
2022/04/30 00:55:38;;;;;;;17.40;11.90;;;;;;;;;;5014577;28;20033;-83
2022/04/30 00:58:06;;;;;;;21.55;11.98;;;;;;;;;;5052019;28;20057;-82
2022/04/30 01:00:38;;;;;;;20.52;13.40;;;;;;;;;;5067532;28;20534;-83
2022/04/30 01:03:13;;;;;;;24.67;12.68;;;;;;;;;;5069396;28;20071;-82
2022/04/30 01:05:42;;;;;;;18.52;11.55;;;;;;;;;;5052094;28;20049;-82
2022/04/30 01:08:41;;;;;;;21.10;12.60;;;;;;;;;;5051482;28;20049;-83
2022/04/30 01:14:19;;;;;;;22.23;12.88;;;;;;;;;;5044815;28;20124;-82
2022/04/30 01:19:59;;;;;;;20.10;13.77;;;;;;;;;;5057409;28;20045;-83
2022/04/30 01:22:33;;;;;;;21.77;14.60;;;;;;;;;;5064791;28;20059;-81
2022/04/30 01:25:02;;;;;;;23.98;14.90;;;;;;;;;;5063365;28;20041;-82
2022/04/30 01:27:53;;;;;;;26.67;17.38;;;;;;;;;;5032095;28;20062;-82
2022/04/30 01:30:25;;;;;;;29.75;22.05;;;;;;;;;;5049463;28;20049;-83
2022/04/30 01:38:24;;;;;;;49.03;34.28;;;;;;;;;;5046725;28;20072;-83
2022/04/30 01:41:10;;;;;;;43.13;32.38;;;;;;;;;;5048742;28;20048;-83
2022/04/30 01:43:39;;;;;;;29.08;21.40;;;;;;;;;;5026354;28;20037;-83
2022/04/30 01:46:07;;;;;;;27.02;21.20;;;;;;;;;;5063465;28;20037;-82
2022/04/30 01:49:00;;;;;;;25.27;15.82;;;;;;;;;;5052029;28;20068;-82
2022/04/30 01:51:48;;;;;;;;;;;;;;;;;;;;;
2022/04/30 01:54:17;;;;;;;21.85;14.10;;;;;;;;;;5080195;28;20067;-83
2022/04/30 01:57:06;;;;;;;24.60;15.65;;;;;;;;;;5067618;28;20077;-83
2022/04/30 01:59:52;;;;;;;20.38;12.45;;;;;;;;;;5067884;28;20117;-82
2022/04/30 02:05:33;;;;;;;18.98;13.13;;;;;;;;;;5030946;28;20087;-83
2022/04/30 02:08:21;;;;;;;20.05;14.13;;;;;;;;;;5051271;28;20042;-83
2022/04/30 02:11:14;;;;;;;21.27;13.35;;;;;;;;;;5054630;28;20463;-83
2022/04/30 02:14:02;;;;;;;20.38;13.60;;;;;;;;;;5045938;28;20101;-83
2022/04/30 02:16:49;;;;;;;22.63;13.32;;;;;;;;;;5049329;28;20081;-82
2022/04/30 02:19:16;;;;;;;22.05;14.30;;;;;;;;;;5069819;28;20041;-82
2022/04/30 02:21:45;;;;;;;23.25;14.60;;;;;;;;;;5050427;28;20082;-82
2022/04/30 02:24:15;;;;;;;21.23;14.68;;;;;;;;;;5067746;28;20033;-83
2022/04/30 02:26:43;;;;;;;21.92;14.85;;;;;;;;;;5069149;28;20068;-82
2022/04/30 02:29:16;;;;;;;24.42;16.92;;;;;;;;;;5043370;28;20053;-83
2022/04/30 02:32:00;;;;;;;24.02;18.38;;;;;;;;;;5016116;28;20037;-82
2022/04/30 02:34:35;;;;;;;17.58;12.88;;;;;;;;;;5061554;28;20055;-83
2022/04/30 02:37:12;;;;;;;20.60;13.50;;;;;;;;;;5033063;28;20059;-83
2022/04/30 02:39:47;;;;;;;20.08;13.52;;;;;;;;;;5069495;28;20090;-83
2022/04/30 02:42:18;;;;;;;20.38;12.77;;;;;;;;;;5045492;28;20062;-82
2022/04/30 02:44:55;;;;;;;17.95;11.55;;;;;;;;;;5059764;28;20045;-82
2022/04/30 02:47:56;;;;;;;;;;;;;;;;;;;;;
2022/04/30 02:50:28;;;;;;;18.33;13.27;;;;;;;;;;5057713;28;20044;-83
2022/04/30 02:52:59;;;;;;;22.13;13.60;;;;;;;;;;5048542;28;20041;-83
2022/04/30 02:56:06;;;;;;;;;;;;;;;;;;;;;
2022/04/30 03:01:18;;;;;;;23.38;13.30;;;;;;;;;;5064207;28;20048;-83
2022/04/30 03:03:57;;;;;;;;;;;;;;;;;;;;;
2022/04/30 03:09:32;;;;;;;21.58;14.02;;;;;;;;;;5053586;28;20046;-83
2022/04/30 03:12:22;;;;;;;24.83;15.88;;;;;;;;;;5015149;28;20067;-82
2022/04/30 03:15:09;;;;;;;21.83;15.48;;;;;;;;;;5027518;28;20056;-82
2022/04/30 03:23:43;;;;;;;27.83;17.63;;;;;;;;;;5068731;28;20045;-84
2022/04/30 03:26:37;;;;;;;25.85;17.05;;;;;;;;;;5052029;28;20045;-84
2022/04/30 03:29:33;;;;;;;;;;;;;;;;;;;;;
2022/04/30 03:32:14;;;;;;;25.95;15.52;;;;;;;;;;5051489;28;20079;-84
2022/04/30 03:35:13;;;;;;;;;;;;;;;;;;;;;
2022/04/30 03:38:01;;;;;;;;;;;;;;;;;;;;;
2022/04/30 03:40:49;;;;;;;26.30;18.52;;;;;;;;;;5068263;28;20041;-83
2022/04/30 03:43:31;;;;;;;;;;;;;;;;;;;;;
2022/04/30 03:46:05;;;;;;;27.02;15.73;;;;;;;;;;5052462;28;20060;-84
2022/04/30 03:48:40;;;;;;;20.38;13.30;;;;;;;;;;5069590;28;20067;-83
2022/04/30 03:51:09;;;;;;;19.42;12.13;;;;;;;;;;5069813;28;20041;-83
2022/04/30 03:53:45;;;;;;;20.90;12.45;;;;;;;;;;5054060;28;20051;-83
2022/04/30 03:56:19;;;;;;;16.83;11.32;;;;;;;;;;5065792;28;20051;-84
2022/04/30 03:58:47;;;;;;;18.63;11.52;;;;;;;;;;5064222;28;20061;-83
2022/04/30 04:01:18;;;;;;;20.75;13.20;;;;;;;;;;5071358;28;20083;-84
2022/04/30 04:03:52;;;;;;;18.98;11.60;;;;;;;;;;5045329;28;20052;-83
2022/04/30 04:06:20;;;;;;;17.73;12.20;;;;;;;;;;5065881;28;20045;-84
2022/04/30 04:08:52;;;;;;;20.52;11.68;;;;;;;;;;5053023;28;20064;-84
2022/04/30 04:11:29;;;;;;;19.48;11.82;;;;;;;;;;5066853;28;20098;-84
2022/04/30 04:19:30;;;;;;;17.38;11.40;;;;;;;;;;5068264;28;20041;-84
2022/04/30 04:21:56;;;;;;;15.20;10.85;;;;;;;;;;5070658;28;20049;-83
2022/04/30 04:27:10;;;;;;;16.63;10.68;;;;;;;;;;5033063;28;20050;-83
2022/04/30 04:29:36;;;;;;;15.05;11.20;;;;;;;;;;5051497;28;20076;-83
2022/04/30 04:32:04;;;;;;;17.73;11.75;;;;;;;;;;5051468;28;20064;-83
2022/04/30 04:34:33;;;;;;;19.25;11.32;;;;;;;;;;5042305;28;20048;-83
2022/04/30 04:36:59;;;;;;;15.98;10.20;;;;;;;;;;5049490;28;20041;-84
2022/04/30 04:39:26;;;;;;;17.17;10.45;;;;;;;;;;5035377;28;20041;-83
2022/04/30 04:41:55;;;;;;;17.48;11.15;;;;;;;;;;5050877;28;20068;-82
2022/04/30 04:44:23;;;;;;;16.83;10.68;;;;;;;;;;5068422;28;20041;-84
2022/04/30 04:46:51;;;;;;;15.00;10.60;;;;;;;;;;5050070;28;20071;-83
2022/04/30 04:49:17;;;;;;;18.98;11.23;;;;;;;;;;5053751;28;20065;-84
2022/04/30 04:51:43;;;;;;;20.48;10.95;;;;;;;;;;5052795;28;20041;-83
2022/04/30 04:54:10;;;;;;;16.48;11.60;;;;;;;;;;5066704;28;20048;-84
2022/04/30 04:56:46;;;;;;;;;;;;;;;;;;;;;
2022/04/30 04:59:14;;;;;;;16.33;10.65;;;;;;;;;;5051183;28;20053;-84
2022/04/30 05:01:40;;;;;;;17.02;10.20;;;;;;;;;;5072030;28;20046;-84
2022/04/30 05:04:34;;;;;;;15.85;10.23;;;;;;;;;;5068319;28;20068;-84
2022/04/30 05:07:49;;;;;;;16.25;10.70;;;;;;;;;;5072021;28;20037;-84
2022/04/30 05:10:48;;;;;;;17.17;10.50;;;;;;;;;;5034331;28;20049;-84
2022/04/30 05:14:04;;;;;;;;;;;;;;;;;;;;;
2022/04/30 05:16:23;;;;;;;17.25;10.52;;;;;;;;;;5064581;28;20049;-83
2022/04/30 05:18:49;;;;;;;21.60;12.27;;;;;;;;;;5054377;28;20045;-83
2022/04/30 05:21:26;;;;;;;;;;;;;;;;;;;;;
2022/04/30 05:27:03;;;;;;;18.75;11.40;;;;;;;;;;5071344;28;20053;-83
2022/04/30 05:29:57;;;;;;;18.13;11.18;;;;;;;;;;5055010;28;20048;-85
2022/04/30 05:32:50;;;;;;;19.67;11.07;;;;;;;;;;5038625;28;20045;-84
2022/04/30 05:35:24;;;;;;;25.23;13.52;;;;;;;;;;5056703;28;20041;-83
2022/04/30 05:43:41;;;;;;;;;;;;;;;;;;;;;
2022/04/30 05:52:11;;;;;;;14.68;9.98;;;;;;;;;;5048761;28;20045;-83
2022/04/30 05:57:34;;;;;;;13.95;7.78;;;;;;;;;;5035667;28;20056;-83
2022/04/30 06:03:12;;;;;;;14.57;8.73;;;;;;;;;;5043530;28;20045;-83
2022/04/30 06:05:41;;;;;;;15.77;8.60;;;;;;;;;;5052290;28;20046;-82
2022/04/30 06:08:07;;;;;;;15.07;8.10;;;;;;;;;;5052905;28;20076;-84
2022/04/30 06:10:53;;;;;;;14.57;7.85;;;;;;;;;;5052890;28;20069;-84
2022/04/30 06:13:22;;;;;;;15.77;8.25;;;;;;;;;;5049932;28;20048;-84
2022/04/30 06:15:48;;;;;;;13.18;7.47;;;;;;;;;;5047079;28;20056;-84
2022/04/30 06:18:26;;;;;;;;;;;;;;;;;;;;;
2022/04/30 06:21:13;;;;;;;;;;;;;;;;;;;;;
2022/04/30 06:27:21;;;;;;;15.57;9.05;;;;;;;;;;5035045;28;20060;-85
2022/04/30 06:33:26;;;;;;;16.83;10.20;;;;;;;;;;5038179;28;20412;-83
2022/04/30 06:36:01;;;;;;;23.50;10.23;;;;;;;;;;5044302;28;20053;-83
2022/04/30 06:38:47;;;;;;;19.20;9.23;;;;;;;;;;5043166;28;20454;-82
2022/04/30 06:41:50;;;;;;;;;;;;;;;;;;;;;
2022/04/30 06:44:57;;;;;;;;;;;;;;;;;;;;;
2022/04/30 06:47:39;;;;;;;13.32;8.07;;;;;;;;;;5043071;28;20045;-83
2022/04/30 06:50:20;;;;;;;14.88;8.63;;;;;;;;;;5044586;28;20095;-84
2022/04/30 06:58:26;;;;;;;12.63;6.05;;;;;;;;;;5067984;28;20057;-82
2022/04/30 07:09:54;;;;;;;10.60;5.63;;;;;;;;;;5038707;28;20053;-83
2022/04/30 07:12:54;;;;;;;12.02;5.97;;;;;;;;;;5069802;28;20144;-83
2022/04/30 07:18:44;;;;;;;;;;;;;;;;;;;;;
2022/04/30 07:21:34;;;;;;;9.02;4.53;;;;;;;;;;5042461;28;20080;-84
2022/04/30 07:24:30;;;;;;;;;;;;;;;;;;;;;
2022/04/30 07:27:10;;;;;;;;;;;;;;;;;;;;;
2022/04/30 07:29:49;;;;;;;8.90;4.18;;;;;;;;;;5067671;28;20518;-83
2022/04/30 07:32:30;;;;;;;9.45;4.72;;;;;;;;;;5038782;28;20041;-83
2022/04/30 07:35:26;;;;;;;;;;;;;;;;;;;;;
2022/04/30 07:37:55;;;;;;;8.68;3.53;;;;;;;;;;5064287;28;20045;-84
2022/04/30 07:40:21;;;;;;;7.65;3.63;;;;;;;;;;5012960;28;20053;-83
2022/04/30 07:43:17;;;;;;;10.30;3.90;;;;;;;;;;5061150;28;20045;-83
2022/04/30 07:55:13;;;;;;;8.43;4.22;;;;;;;;;;5058832;28;20049;-84
2022/04/30 07:57:52;;;;;;;;;;;;;;;;;;;;;
2022/04/30 08:00:23;;;;;;;6.60;3.22;;;;;;;;;;5042932;28;20057;-83
2022/04/30 08:02:57;;;;;;;9.77;4.20;;;;;;;;;;5034535;28;20049;-82
2022/04/30 08:06:01;;;;;;;8.02;4.10;;;;;;;;;;5048495;28;20041;-83
2022/04/30 08:08:27;;;;;;;6.65;3.72;;;;;;;;;;5050296;28;20050;-84
2022/04/30 08:11:14;;;;;;;;;;;;;;;;;;;;;
2022/04/30 08:14:11;;;;;;;;;;;;;;;;;;;;;
2022/04/30 08:17:04;;;;;;;7.25;3.70;;;;;;;;;;5045285;28;20057;-82
2022/04/30 08:19:51;;;;;;;;;;;;;;;;;;;;;
2022/04/30 08:22:19;;;;;;;9.80;4.20;;;;;;;;;;5050869;28;20057;-83
2022/04/30 08:24:51;;;;;;;10.75;4.03;;;;;;;;;;5053174;28;20049;-83
2022/04/30 08:27:26;;;;;;;8.40;3.72;;;;;;;;;;5050957;28;20021;-83
2022/04/30 08:30:13;;;;;;;;;;;;;;;;;;;;;
2022/04/30 08:33:09;;;;;;;13.20;4.03;;;;;;;;;;5047890;28;20057;-85
2022/04/30 08:36:01;;;;;;;8.85;3.30;;;;;;;;;;5048903;28;20564;-83
2022/04/30 08:38:45;;;;;;;9.23;4.18;;;;;;;;;;5049331;28;20038;-83
2022/04/30 08:41:13;;;;;;;8.43;4.38;;;;;;;;;;5049849;28;20103;-83
2022/04/30 08:43:42;;;;;;;12.43;4.25;;;;;;;;;;5050548;28;20096;-82
2022/04/30 08:46:37;;;;;;;8.65;3.90;;;;;;;;;;5028596;28;20046;-83
2022/04/30 08:49:24;;;;;;;10.15;4.10;;;;;;;;;;5029550;28;20045;-83
2022/04/30 08:51:56;;;;;;;6.18;3.15;;;;;;;;;;5049722;28;20250;-82
2022/04/30 08:54:49;;;;;;;;;;;;;;;;;;;;;
2022/04/30 08:57:20;;;;;;;10.63;4.00;;;;;;;;;;5051112;28;20045;-82
2022/04/30 08:59:46;;;;;;;9.95;4.38;;;;;;;;;;5064806;28;20065;-82
2022/04/30 09:02:13;;;;;;;9.85;4.35;;;;;;;;;;5069227;28;20568;-83
2022/04/30 09:04:51;;;;;;;9.40;4.72;;;;;;;;;;5069630;28;20033;-82
2022/04/30 09:07:26;;;;;;;9.82;4.53;;;;;;;;;;5059758;28;20036;-81
2022/04/30 09:09:59;;;;;;;9.05;4.35;;;;;;;;;;5051132;28;20059;-83
2022/04/30 09:12:34;;;;;;;10.77;5.10;;;;;;;;;;5064022;28;20076;-82
2022/04/30 09:15:23;;;;;;;;;;;;;;;;;;;;;
2022/04/30 09:21:14;;;;;;;11.15;6.03;;;;;;;;;;5054883;28;20510;-83
2022/04/30 09:23:42;;;;;;;10.75;5.18;;;;;;;;;;5068542;28;20068;-83
2022/04/30 09:26:09;;;;;;;9.85;5.00;;;;;;;;;;5050977;28;20060;-82
2022/04/30 09:28:36;;;;;;;9.32;5.00;;;;;;;;;;5063429;28;20070;-84
2022/04/30 09:31:08;;;;;;;9.85;5.65;;;;;;;;;;5072772;28;20044;-82
2022/04/30 09:33:57;;;;;;;15.43;5.65;;;;;;;;;;5087065;28;20051;-82
2022/04/30 09:39:12;;;;;;;9.75;5.38;;;;;;;;;;5049669;28;20043;-83
2022/04/30 09:41:38;;;;;;;11.98;5.43;;;;;;;;;;5072529;28;20108;-82
2022/04/30 09:44:06;;;;;;;10.73;4.80;;;;;;;;;;5072358;28;20037;-82
2022/04/30 09:46:36;;;;;;;8.30;4.50;;;;;;;;;;5056229;28;20044;-81
2022/04/30 09:54:36;;;;;;;11.50;5.15;;;;;;;;;;5071367;28;20075;-81
2022/04/30 09:57:04;;;;;;;14.90;4.82;;;;;;;;;;5053075;28;20555;-81
2022/04/30 09:59:30;;;;;;;9.55;4.68;;;;;;;;;;5057002;28;20080;-80
2022/04/30 10:01:57;;;;;;;11.10;5.22;;;;;;;;;;5069564;28;20059;-82
2022/04/30 10:04:24;;;;;;;10.45;4.28;;;;;;;;;;5079993;28;20259;-82
2022/04/30 10:06:51;;;;;;;7.40;4.20;;;;;;;;;;5065839;28;20047;-81
2022/04/30 10:09:21;;;;;;;10.02;4.70;;;;;;;;;;5049823;28;20094;-81
2022/04/30 10:11:55;;;;;;;8.75;4.50;;;;;;;;;;5051963;28;20041;-81
2022/04/30 10:14:33;;;;;;;11.57;4.35;;;;;;;;;;5045054;28;20047;-83
2022/04/30 10:19:35;;;;;;;9.38;4.60;;;;;;;;;;5070666;28;20049;-81
2022/04/30 10:22:14;;;;;;;10.38;4.00;;;;;;;;;;5049548;28;20135;-80
2022/04/30 10:24:42;;;;;;;9.52;3.75;;;;;;;;;;5048504;28;20037;-85
2022/04/30 10:27:08;;;;;;;8.13;4.07;;;;;;;;;;5058619;28;20041;-81
2022/04/30 10:29:34;;;;;;;11.98;4.28;;;;;;;;;;5052136;28;20390;-81
2022/04/30 10:32:00;;;;;;;8.95;4.22;;;;;;;;;;5072219;28;20045;-82
2022/04/30 10:34:30;;;;;;;6.45;3.15;;;;;;;;;;5054832;28;20045;-82
2022/04/30 10:36:58;;;;;;;9.40;4.30;;;;;;;;;;5068697;28;20045;-82
2022/04/30 10:39:24;;;;;;;8.45;4.13;;;;;;;;;;5035699;28;20041;-82
2022/04/30 10:41:50;;;;;;;8.32;4.38;;;;;;;;;;5058151;28;20047;-83
2022/04/30 10:44:27;;;;;;;10.25;3.88;;;;;;;;;;5059476;28;20071;-83
2022/04/30 10:46:53;;;;;;;9.52;4.00;;;;;;;;;;5050872;28;20147;-83
2022/04/30 10:49:19;;;;;;;8.10;4.00;;;;;;;;;;5048067;28;20042;-83
2022/04/30 10:51:45;;;;;;;7.38;3.85;;;;;;;;;;5062601;28;20048;-81
2022/04/30 10:54:18;;;;;;;8.13;3.90;;;;;;;;;;5047705;28;20045;-82
2022/04/30 10:56:45;;;;;;;9.23;4.13;;;;;;;;;;5026058;28;20071;-82
2022/04/30 10:59:21;;;;;;;7.18;3.35;;;;;;;;;;5069938;28;20080;-82
2022/04/30 11:01:50;;;;;;;7.63;4.15;;;;;;;;;;5069458;28;20395;-83
2022/04/30 11:04:17;;;;;;;8.25;4.25;;;;;;;;;;5048246;28;20050;-83
2022/04/30 11:06:43;;;;;;;6.63;3.80;;;;;;;;;;5049972;28;20053;-81
2022/04/30 11:09:09;;;;;;;14.18;4.13;;;;;;;;;;5049673;28;20083;-82
2022/04/30 11:11:37;;;;;;;10.75;4.22;;;;;;;;;;5031998;28;20522;-82
2022/04/30 11:14:10;;;;;;;7.88;4.15;;;;;;;;;;5048406;28;20039;-83
2022/04/30 11:16:37;;;;;;;7.03;3.75;;;;;;;;;;5039136;28;20407;-81
2022/04/30 11:19:09;;;;;;;8.27;3.60;;;;;;;;;;5025524;28;20042;-83
2022/04/30 11:21:36;;;;;;;6.15;3.03;;;;;;;;;;5037774;28;20053;-80
2022/04/30 11:24:03;;;;;;;8.70;3.47;;;;;;;;;;5038886;28;20050;-81
2022/04/30 11:26:30;;;;;;;7.88;3.78;;;;;;;;;;5026799;28;20077;-83
2022/04/30 11:28:57;;;;;;;8.20;3.80;;;;;;;;;;5048354;28;20054;-83
2022/04/30 11:31:23;;;;;;;7.63;3.95;;;;;;;;;;5048100;28;20033;-83
2022/04/30 11:33:49;;;;;;;9.63;3.70;;;;;;;;;;5048667;28;20037;-82
2022/04/30 11:36:15;;;;;;;8.98;3.92;;;;;;;;;;5051467;28;20041;-82
2022/04/30 11:38:50;;;;;;;7.47;3.70;;;;;;;;;;5050098;28;20041;-83
2022/04/30 11:41:16;;;;;;;7.25;3.50;;;;;;;;;;5049614;28;20045;-82
2022/04/30 11:43:42;;;;;;;6.78;3.42;;;;;;;;;;5052006;28;20110;-82
2022/04/30 11:46:08;;;;;;;7.03;2.72;;;;;;;;;;5052920;28;20041;-82
2022/04/30 11:48:39;;;;;;;6.65;2.67;;;;;;;;;;5051360;28;20056;-82
2022/04/30 11:51:06;;;;;;;5.57;2.42;;;;;;;;;;5046407;28;20502;-82
2022/04/30 11:53:32;;;;;;;5.30;2.20;;;;;;;;;;5048975;28;20121;-81
2022/04/30 11:55:58;;;;;;;5.20;2.35;;;;;;;;;;5035341;28;20104;-82
2022/04/30 11:58:24;;;;;;;6.80;2.70;;;;;;;;;;5043424;28;20076;-83
2022/04/30 12:00:53;;;;;;;7.93;3.22;;;;;;;;;;5048247;28;20109;-83
2022/04/30 12:03:26;;;;;;;6.28;2.65;;;;;;;;;;5053027;28;20028;-83
2022/04/30 12:05:53;;;;;;;5.65;2.72;;;;;;;;;;5056492;28;20041;-83
2022/04/30 12:08:19;;;;;;;8.68;2.88;;;;;;;;;;5021650;28;20545;-83
2022/04/30 12:10:54;;;;;;;6.82;2.90;;;;;;;;;;5045550;28;20045;-83
2022/04/30 12:13:24;;;;;;;8.02;3.83;;;;;;;;;;5033228;28;20038;-83
2022/04/30 12:15:50;;;;;;;7.60;3.58;;;;;;;;;;5032121;28;20046;-83
2022/04/30 12:26:39;;;;;;;6.32;3.10;;;;;;;;;;5074224;28;20057;-82
2022/04/30 12:29:19;;;;;;;6.70;3.25;;;;;;;;;;5069813;28;20048;-83
2022/04/30 12:31:54;;;;;;;8.30;3.80;;;;;;;;;;5048160;28;20050;-83
2022/04/30 12:34:27;;;;;;;7.85;3.58;;;;;;;;;;5045939;28;20105;-82
2022/04/30 12:36:53;;;;;;;6.88;3.38;;;;;;;;;;5062609;28;20118;-82
2022/04/30 12:39:19;;;;;;;7.28;3.53;;;;;;;;;;5072899;28;20072;-83
2022/04/30 12:41:45;;;;;;;6.78;3.72;;;;;;;;;;5042913;28;20128;-82
2022/04/30 12:44:11;;;;;;;11.32;3.60;;;;;;;;;;5031466;28;20038;-83
2022/04/30 12:46:41;;;;;;;9.38;3.70;;;;;;;;;;5026538;28;20075;-83
2022/04/30 12:49:07;;;;;;;8.25;3.33;;;;;;;;;;5051421;28;20072;-83
2022/04/30 12:51:33;;;;;;;7.63;3.38;;;;;;;;;;5041993;28;20046;-83
2022/04/30 12:53:59;;;;;;;7.35;3.00;;;;;;;;;;5052267;28;20072;-83
2022/04/30 12:56:27;;;;;;;5.93;3.33;;;;;;;;;;5050260;28;20038;-83
2022/04/30 12:58:53;;;;;;;7.72;3.63;;;;;;;;;;5055787;28;20079;-83
2022/04/30 13:01:19;;;;;;;8.55;3.17;;;;;;;;;;5066542;28;20041;-83
2022/04/30 13:03:45;;;;;;;7.13;3.50;;;;;;;;;;5067000;28;20062;-84
2022/04/30 13:06:11;;;;;;;7.78;3.65;;;;;;;;;;5050510;28;20059;-83
2022/04/30 13:14:06;;;;;;;6.68;3.20;;;;;;;;;;5056992;28;20035;-84
2022/04/30 13:16:33;;;;;;;6.38;2.85;;;;;;;;;;5071999;28;20044;-84
2022/04/30 13:18:59;;;;;;;6.72;3.13;;;;;;;;;;5070226;28;20045;-85
2022/04/30 13:21:26;;;;;;;8.77;3.20;;;;;;;;;;5067596;28;20047;-83
2022/04/30 13:23:52;;;;;;;6.32;2.70;;;;;;;;;;5074155;28;20044;-83
2022/04/30 13:26:20;;;;;;;6.47;2.60;;;;;;;;;;5064607;28;20044;-82
2022/04/30 13:28:47;;;;;;;7.35;3.00;;;;;;;;;;5052978;28;20060;-84
2022/04/30 13:31:13;;;;;;;6.35;2.63;;;;;;;;;;5032043;28;20043;-83
2022/04/30 13:33:39;;;;;;;5.68;2.38;;;;;;;;;;5067399;28;20064;-83
2022/04/30 13:36:05;;;;;;;6.63;2.83;;;;;;;;;;5067338;28;20085;-83
2022/04/30 13:38:31;;;;;;;9.93;3.00;;;;;;;;;;5072395;28;20041;-83
2022/04/30 13:41:01;;;;;;;6.75;3.17;;;;;;;;;;5051541;28;20080;-83
2022/04/30 13:43:27;;;;;;;6.55;3.30;;;;;;;;;;5052784;28;20100;-82
2022/04/30 13:45:53;;;;;;;7.10;3.20;;;;;;;;;;5066157;28;20037;-83
2022/04/30 13:48:19;;;;;;;6.65;2.60;;;;;;;;;;5069258;28;20096;-83
2022/04/30 13:50:45;;;;;;;8.55;2.88;;;;;;;;;;5053490;28;20040;-83
2022/04/30 13:53:12;;;;;;;6.10;3.05;;;;;;;;;;5067549;28;20078;-83
2022/04/30 13:55:38;;;;;;;6.20;2.88;;;;;;;;;;5070168;28;20064;-83
2022/04/30 13:58:04;;;;;;;5.85;2.88;;;;;;;;;;5073041;28;20037;-82
2022/04/30 14:00:30;;;;;;;7.78;2.72;;;;;;;;;;5071670;28;20075;-83
2022/04/30 14:02:56;;;;;;;5.53;3.10;;;;;;;;;;5071426;28;20057;-82
2022/04/30 14:05:22;;;;;;;6.43;3.25;;;;;;;;;;5065231;28;20037;-83
2022/04/30 14:07:48;;;;;;;7.60;3.30;;;;;;;;;;5071318;28;20096;-82
2022/04/30 14:10:15;;;;;;;6.88;2.92;;;;;;;;;;5022863;28;20052;-82
2022/04/30 14:12:41;;;;;;;7.40;3.22;;;;;;;;;;5053536;28;20048;-82
2022/04/30 14:15:09;;;;;;;8.38;3.20;;;;;;;;;;5074016;28;20079;-82
2022/04/30 14:20:20;;;;;;;6.57;2.60;;;;;;;;;;5050501;28;20045;-84
2022/04/30 14:22:46;;;;;;;5.20;2.83;;;;;;;;;;5031896;28;20092;-83
2022/04/30 14:25:13;;;;;;;6.78;3.17;;;;;;;;;;5066195;28;20040;-83
2022/04/30 14:27:40;;;;;;;6.40;2.90;;;;;;;;;;5072723;28;20052;-84
2022/04/30 14:30:07;;;;;;;6.50;3.10;;;;;;;;;;5065594;28;20053;-83
2022/04/30 14:32:34;;;;;;;6.10;2.78;;;;;;;;;;5057247;28;20050;-83
2022/04/30 14:35:00;;;;;;;7.07;3.00;;;;;;;;;;5038065;28;20045;-82
2022/04/30 14:37:29;;;;;;;5.55;2.80;;;;;;;;;;5051779;28;20044;-82
2022/04/30 14:39:56;;;;;;;7.80;3.00;;;;;;;;;;5071716;28;20060;-83
2022/04/30 14:42:22;;;;;;;5.78;2.72;;;;;;;;;;5052095;28;20044;-81
2022/04/30 14:44:49;;;;;;;6.00;2.85;;;;;;;;;;5061415;28;20050;-83
2022/04/30 14:47:15;;;;;;;5.90;2.75;;;;;;;;;;5059192;28;20045;-82
2022/04/30 14:49:42;;;;;;;6.72;2.90;;;;;;;;;;5071846;28;20044;-83
2022/04/30 14:52:10;;;;;;;7.80;3.20;;;;;;;;;;5049086;28;20044;-82
2022/04/30 14:54:37;;;;;;;6.13;2.80;;;;;;;;;;5042684;28;20383;-83
2022/04/30 14:57:03;;;;;;;7.05;3.10;;;;;;;;;;5047373;28;20057;-83
2022/04/30 14:59:37;;;;;;;6.15;2.90;;;;;;;;;;5051366;28;20064;-82
2022/04/30 15:02:10;;;;;;;5.40;2.50;;;;;;;;;;5035802;28;20041;-83
2022/04/30 15:04:56;;;;;;;6.43;3.00;;;;;;;;;;5054291;28;20045;-81
2022/04/30 15:07:48;;;;;;;7.55;2.78;;;;;;;;;;5068771;28;20112;-81
2022/04/30 15:10:26;;;;;;;5.93;2.78;;;;;;;;;;5040989;28;20061;-82
2022/04/30 15:13:05;;;;;;;;;;;;;;;;;;;;;
2022/04/30 15:15:33;;;;;;;5.88;2.90;;;;;;;;;;5069370;28;20044;-82
2022/04/30 15:18:15;;;;;;;7.13;3.03;;;;;;;;;;5070214;28;20048;-82
2022/04/30 15:20:43;;;;;;;5.70;2.83;;;;;;;;;;5030079;28;20033;-81
2022/04/30 15:23:15;;;;;;;;;;;;;;;;;;5071013;28;20152;-82
2022/04/30 15:25:46;;;;;;;6.78;2.80;;;;;;;;;;5052717;28;20413;-82
2022/04/30 15:28:13;;;;;;;;;;;;;;;;;;5072006;28;20073;-83
2022/04/30 15:30:44;;;;;;;9.15;3.50;;;;;;;;;;5038321;28;19960;-82
2022/04/30 15:33:10;;;;;;;6.25;2.90;;;;;;;;;;5052900;28;20495;-82
2022/04/30 15:35:39;;;;;;;6.60;3.10;;;;;;;;;;5074372;28;20635;-84
2022/04/30 15:38:05;;;;;;;5.85;3.10;;;;;;;;;;5084127;28;20044;-83
2022/04/30 15:40:32;;;;;;;7.15;3.17;;;;;;;;;;5083547;28;20041;-82
2022/04/30 15:42:58;;;;;;;6.30;2.92;;;;;;;;;;5044149;28;20041;-83
2022/04/30 15:45:25;;;;;;;7.60;3.30;;;;;;;;;;5067121;28;20048;-83
2022/04/30 15:53:47;;;;;;;6.40;3.30;;;;;;;;;;5062946;28;20175;-83
2022/04/30 15:56:07;;;;;;;6.85;3.70;;;;;;;;;;5049592;28;20053;-83
2022/04/30 15:58:40;;;;;;;9.13;3.60;;;;;;;;;;5030579;28;20057;-83
2022/04/30 16:01:06;;;;;;;6.03;3.40;;;;;;;;;;5058350;28;20049;-83
2022/04/30 16:03:32;;;;;;;7.45;3.47;;;;;;;;;;5035572;28;20045;-82
2022/04/30 16:06:01;;;;;;;6.75;3.42;;;;;;;;;;5078179;28;20088;-83
2022/04/30 16:08:28;;;;;;;8.02;3.38;;;;;;;;;;5072667;28;20048;-83
2022/04/30 16:10:54;;;;;;;7.10;3.67;;;;;;;;;;5053354;28;20045;-83
2022/04/30 16:13:20;;;;;;;7.90;3.55;;;;;;;;;;5051043;28;20063;-83
2022/04/30 16:15:47;;;;;;;6.70;4.20;;;;;;;;;;5051941;28;20040;-82
2022/04/30 16:18:13;;;;;;;7.25;3.83;;;;;;;;;;5034883;28;20045;-82
2022/04/30 16:20:39;;;;;;;7.72;3.63;;;;;;;;;;5042203;28;20041;-83
2022/04/30 16:23:05;;;;;;;8.15;3.55;;;;;;;;;;5015808;28;20049;-83
2022/04/30 16:25:31;;;;;;;6.88;3.20;;;;;;;;;;5051070;28;20049;-83
2022/04/30 16:27:57;;;;;;;7.30;3.42;;;;;;;;;;5051327;28;20044;-83
2022/04/30 16:30:23;;;;;;;7.50;3.75;;;;;;;;;;5049805;28;20215;-82
2022/04/30 16:32:50;;;;;;;6.38;3.60;;;;;;;;;;5069636;28;20045;-83
2022/04/30 16:35:17;;;;;;;9.73;3.70;;;;;;;;;;5052121;28;20049;-84
2022/04/30 16:37:44;;;;;;;7.57;4.20;;;;;;;;;;5050767;28;20052;-82
2022/04/30 16:40:11;;;;;;;8.52;3.83;;;;;;;;;;5066740;28;20045;-83
2022/04/30 16:42:37;;;;;;;9.65;3.83;;;;;;;;;;5069551;28;20123;-83
2022/04/30 16:45:03;;;;;;;6.72;3.90;;;;;;;;;;5069470;28;20102;-82
2022/04/30 16:47:29;;;;;;;7.75;3.72;;;;;;;;;;5065929;28;20059;-82
2022/04/30 16:49:55;;;;;;;9.15;4.10;;;;;;;;;;5080667;28;20048;-83
2022/04/30 16:52:24;;;;;;;8.38;4.00;;;;;;;;;;5052825;28;20081;-83
2022/04/30 16:57:40;;;;;;;7.10;4.15;;;;;;;;;;5063343;28;20057;-82
2022/04/30 17:00:11;;;;;;;8.05;3.92;;;;;;;;;;5068123;28;20053;-81
2022/04/30 17:02:40;;;;;;;8.05;3.72;;;;;;;;;;5068006;28;20059;-83
2022/04/30 17:05:06;;;;;;;9.07;3.50;;;;;;;;;;5067484;28;20048;-83
2022/04/30 17:07:36;;;;;;;7.57;4.22;;;;;;;;;;5054840;28;20134;-82
2022/04/30 17:10:05;;;;;;;8.18;4.05;;;;;;;;;;5069864;28;20098;-83
2022/04/30 17:12:35;;;;;;;7.88;4.07;;;;;;;;;;5070046;28;20037;-84
2022/04/30 17:15:01;;;;;;;7.18;3.70;;;;;;;;;;5070354;28;20135;-84
2022/04/30 17:17:32;;;;;;;9.35;3.78;;;;;;;;;;5069674;28;20080;-83
2022/04/30 17:19:59;;;;;;;8.75;3.45;;;;;;;;;;5086985;28;20051;-83
2022/04/30 17:22:25;;;;;;;6.68;3.90;;;;;;;;;;5074382;28;20036;-83
2022/04/30 17:24:51;;;;;;;6.90;3.78;;;;;;;;;;5053464;28;20048;-83
2022/04/30 17:27:19;;;;;;;10.15;4.15;;;;;;;;;;5082788;28;20044;-83
2022/04/30 17:29:45;;;;;;;8.55;4.03;;;;;;;;;;5075815;28;20100;-83
2022/04/30 17:38:01;;;;;;;7.18;3.63;;;;;;;;;;5060959;28;20073;-83
2022/04/30 17:40:28;;;;;;;7.03;3.58;;;;;;;;;;5065854;28;20101;-83
2022/04/30 17:42:55;;;;;;;7.60;3.67;;;;;;;;;;5035065;28;20049;-83
2022/04/30 17:45:22;;;;;;;7.22;3.47;;;;;;;;;;5067314;28;20372;-82
2022/04/30 17:47:48;;;;;;;5.25;3.28;;;;;;;;;;5050553;28;20045;-82
2022/04/30 17:50:14;;;;;;;7.32;4.18;;;;;;;;;;5050326;28;20049;-82
2022/04/30 17:52:40;;;;;;;9.57;4.03;;;;;;;;;;5052283;28;20049;-82
2022/04/30 17:55:07;;;;;;;9.25;4.20;;;;;;;;;;5070404;28;20036;-83
2022/04/30 17:57:33;;;;;;;10.13;4.57;;;;;;;;;;5070202;28;20068;-83